createdAt,value
2023-02-14T08:05:57.345Z,40.67
2023-02-14T08:08:30.684Z,35.65
2023-02-14T08:10:59.138Z,41.88
2023-02-14T08:13:26.713Z,41.63
2023-02-14T08:16:06.392Z,37.45
2023-02-14T08:18:41.953Z,37.35
2023-02-14T08:21:11.510Z,37.85
2023-02-14T08:23:39.222Z,37.70
2023-02-14T08:26:06.634Z,40.90
2023-02-14T08:28:34.929Z,38.15
2023-02-14T08:31:04.601Z,35.60
2023-02-14T08:33:32.134Z,36.92
2023-02-14T08:36:00.211Z,37.53
2023-02-14T08:38:27.540Z,36.88
2023-02-14T08:41:00.070Z,38.28
2023-02-14T08:43:27.521Z,36.75
2023-02-14T08:45:54.908Z,32.55
2023-02-14T08:48:23.593Z,37.85
2023-02-14T08:50:50.966Z,37.60
2023-02-14T08:53:18.470Z,34.60
2023-02-14T08:55:45.822Z,37.55
2023-02-14T08:58:13.188Z,37.70
2023-02-14T09:00:41.034Z,32.55
2023-02-14T09:03:08.714Z,38.35
2023-02-14T09:05:36.054Z,33.88
2023-02-14T09:08:03.979Z,37.28
2023-02-14T09:10:31.572Z,32.50
2023-02-14T09:12:58.865Z,34.38
2023-02-14T09:15:26.183Z,33.60
2023-02-14T09:17:53.580Z,32.08
2023-02-14T09:20:21.212Z,35.10
2023-02-14T09:22:48.960Z,32.83
2023-02-14T09:25:17.508Z,34.28
2023-02-14T09:27:44.826Z,36.50
2023-02-14T09:30:13.520Z,30.60
2023-02-14T09:32:40.873Z,32.03
2023-02-14T09:35:08.510Z,33.20
2023-02-14T09:37:54.339Z,30.25
2023-02-14T09:40:21.988Z,37.38
2023-02-14T09:43:49.009Z,33.10
2023-02-14T09:46:18.834Z,31.00
2023-02-14T09:48:49.482Z,28.88
2023-02-14T09:54:16.058Z,33.72
2023-02-14T09:57:25.283Z,31.13
2023-02-14T10:00:17.264Z,32.72
2023-02-14T10:03:12.090Z,28.67
2023-02-14T10:05:59.771Z,30.25
2023-02-14T10:09:26.652Z,30.73
2023-02-14T10:11:57.877Z,31.77
2023-02-14T10:14:36.510Z,30.40
2023-02-14T10:17:23.369Z,31.92
2023-02-14T10:20:01.163Z,32.33
2023-02-14T10:22:45.249Z,29.33
2023-02-14T10:25:32.460Z,26.48
2023-02-14T10:28:02.620Z,28.15
2023-02-14T10:30:44.042Z,30.02
2023-02-14T10:33:22.801Z,29.58
2023-02-14T10:36:33.150Z,30.25
2023-02-14T10:39:50.249Z,31.92
2023-02-14T10:43:15.351Z,30.25
2023-02-14T10:46:10.451Z,28.25
2023-02-14T10:49:58.239Z,31.02
2023-02-14T10:53:37.405Z,29.35
2023-02-14T10:57:04.194Z,27.95
2023-02-14T11:00:06.771Z,32.58
2023-02-14T11:02:46.895Z,28.80
2023-02-14T11:05:47.588Z,30.85
2023-02-14T11:08:40.312Z,29.13
2023-02-14T11:11:53.455Z,31.60
2023-02-14T11:14:25.076Z,30.70
2023-02-14T11:16:54.773Z,30.73
2023-02-14T11:19:24.942Z,30.43
2023-02-14T11:21:56.717Z,26.95
2023-02-14T11:24:35.793Z,28.15
2023-02-14T11:27:19.363Z,29.80
2023-02-14T11:29:52.366Z,28.10
2023-02-14T11:32:31.174Z,26.65
2023-02-14T11:35:13.850Z,30.65
2023-02-14T11:37:57.264Z,26.50
2023-02-14T11:40:39.702Z,29.98
2023-02-14T11:43:15.683Z,30.23
2023-02-14T11:45:47.717Z,30.75
2023-02-14T11:48:37.812Z,30.65
2023-02-14T11:51:15.693Z,30.35
2023-02-14T11:54:00.632Z,27.67
2023-02-14T11:57:13.813Z,29.80
2023-02-14T11:59:57.012Z,29.13
2023-02-14T12:02:48.979Z,30.50
2023-02-14T12:05:48.702Z,29.77
2023-02-14T12:08:23.909Z,27.35
2023-02-14T12:11:23.878Z,28.77
2023-02-14T12:13:58.348Z,30.10
2023-02-14T12:17:02.982Z,27.85
2023-02-14T12:20:16.666Z,26.95
2023-02-14T12:23:30.032Z,27.17
2023-02-14T12:26:14.016Z,26.83
2023-02-14T12:28:54.533Z,28.85
2023-02-14T12:31:22.058Z,27.38
2023-02-14T12:33:50.584Z,28.73
2023-02-14T12:37:02.131Z,29.73
2023-02-14T12:40:16.164Z,27.67
2023-02-14T12:43:51.494Z,31.20
2023-02-14T12:47:14.938Z,28.95
2023-02-14T12:50:16.656Z,29.05
2023-02-14T12:53:40.049Z,30.83
2023-02-14T12:56:50.165Z,31.00
2023-02-14T13:00:00.047Z,28.65
2023-02-14T13:03:15.528Z,30.40
2023-02-14T13:06:03.535Z,29.65
2023-02-14T13:09:13.492Z,32.97
2023-02-14T13:12:13.922Z,29.98
2023-02-14T13:15:35.644Z,29.92
2023-02-14T13:18:57.921Z,29.50
2023-02-14T13:21:35.521Z,29.65
2023-02-14T13:24:38.167Z,30.90
2023-02-14T13:27:16.160Z,32.22
2023-02-14T13:29:59.792Z,35.22
2023-02-14T13:32:37.624Z,30.40
2023-02-14T13:35:07.777Z,32.38
2023-02-14T13:37:36.904Z,31.73
2023-02-14T13:40:20.487Z,32.75
2023-02-14T13:42:50.595Z,34.10
2023-02-14T13:45:34.845Z,28.75
2023-02-14T13:48:28.528Z,31.05
2023-02-14T13:51:09.019Z,31.98
2023-02-14T13:53:48.972Z,34.15
2023-02-14T13:56:16.059Z,30.55
2023-02-14T13:59:06.408Z,33.28
2023-02-14T14:01:50.632Z,29.00
2023-02-14T14:04:44.241Z,34.47
2023-02-14T14:07:30.748Z,29.40
2023-02-14T14:10:02.109Z,30.00
2023-02-14T14:12:29.803Z,30.88
2023-02-14T14:15:05.853Z,31.35
2023-02-14T14:17:50.582Z,32.83
2023-02-14T14:20:20.808Z,33.72
2023-02-14T14:22:58.823Z,31.27
2023-02-14T14:25:43.708Z,36.03
2023-02-14T14:28:18.634Z,32.80
2023-02-14T14:30:46.316Z,35.88
2023-02-14T14:33:33.987Z,35.85
2023-02-14T14:36:11.197Z,34.20
2023-02-14T14:38:54.240Z,33.10
2023-02-14T14:41:29.823Z,35.80
2023-02-14T14:43:59.804Z,32.13
2023-02-14T14:46:27.894Z,34.70
2023-02-14T14:48:57.089Z,33.30
2023-02-14T14:51:35.882Z,34.17
2023-02-14T14:54:12.756Z,33.35
2023-02-14T14:57:02.806Z,35.45
2023-02-14T14:59:36.249Z,36.83
2023-02-14T15:02:27.988Z,37.92
2023-02-14T15:04:55.338Z,36.25
2023-02-14T15:07:36.440Z,35.80
2023-02-14T15:10:24.521Z,36.13
2023-02-14T15:13:13.266Z,35.35
2023-02-14T15:15:41.188Z,38.88
2023-02-14T15:18:11.744Z,37.50
2023-02-14T15:20:40.663Z,36.63
2023-02-14T15:23:17.304Z,38.92
2023-02-14T15:25:47.349Z,38.08
2023-02-14T15:28:35.712Z,40.17
2023-02-14T15:31:07.012Z,39.47
2023-02-14T15:33:35.733Z,39.88
2023-02-14T15:36:15.447Z,33.78
2023-02-14T15:38:43.754Z,40.10
2023-02-14T15:41:13.926Z,34.90
2023-02-14T15:43:41.496Z,38.58
2023-02-14T15:46:29.367Z,40.53
2023-02-14T15:49:01.345Z,38.83
2023-02-14T15:51:36.400Z,36.30
2023-02-14T15:54:31.911Z,45.47
2023-02-14T15:56:59.801Z,37.53
2023-02-14T15:59:33.477Z,34.17
2023-02-14T16:02:37.845Z,37.97
2023-02-14T16:05:27.274Z,42.40
2023-02-14T16:08:35.896Z,41.45
2023-02-14T16:11:31.748Z,35.67
2023-02-14T16:14:19.382Z,36.65
2023-02-14T16:17:13.427Z,38.33
2023-02-14T16:19:45.114Z,37.15
2023-02-14T16:22:32.111Z,42.40
2023-02-14T16:25:00.567Z,39.40
2023-02-14T16:27:28.070Z,37.75
2023-02-14T16:29:55.460Z,39.83
2023-02-14T16:32:24.632Z,42.30
2023-02-14T16:34:52.153Z,43.97
2023-02-14T16:37:47.625Z,45.53
2023-02-14T16:40:16.856Z,38.17
2023-02-14T16:42:44.327Z,44.47
2023-02-14T16:45:18.877Z,39.15
2023-02-14T16:47:48.328Z,42.92
2023-02-14T16:50:17.694Z,42.30
2023-02-14T16:52:49.911Z,42.58
2023-02-14T16:55:20.148Z,42.03
2023-02-14T16:57:50.749Z,41.97
2023-02-14T17:02:45.617Z,44.70
2023-02-14T17:05:13.534Z,46.92
2023-02-14T17:07:43.621Z,43.67
2023-02-14T17:10:19.493Z,42.75
2023-02-14T17:12:48.724Z,42.70
2023-02-14T17:15:21.532Z,43.05
2023-02-14T17:17:50.464Z,44.05
2023-02-14T17:20:20.233Z,47.85
2023-02-14T17:22:48.201Z,41.10
2023-02-14T17:25:15.561Z,47.40
2023-02-14T17:27:44.480Z,46.00
2023-02-14T17:30:15.375Z,46.92
2023-02-14T17:32:43.434Z,42.72
2023-02-14T17:35:11.961Z,48.10
2023-02-14T17:37:39.627Z,44.20
2023-02-14T17:40:09.142Z,44.92
2023-02-14T17:42:36.682Z,47.60
2023-02-14T17:45:06.753Z,44.30
2023-02-14T17:47:35.077Z,46.17
2023-02-14T17:50:03.957Z,45.78
2023-02-14T17:52:31.437Z,45.90
2023-02-14T17:54:58.758Z,46.25
2023-02-14T17:57:26.165Z,44.67
2023-02-14T17:59:53.701Z,48.38
2023-02-14T18:02:21.020Z,46.58
2023-02-14T18:04:48.493Z,44.25
2023-02-14T18:07:16.531Z,46.78
2023-02-14T18:09:43.844Z,44.28
2023-02-14T18:12:14.775Z,49.35
2023-02-14T18:14:42.870Z,43.20
2023-02-14T18:17:13.675Z,50.35
2023-02-14T18:19:41.050Z,48.08
2023-02-14T18:22:08.373Z,53.97
2023-02-14T18:24:36.736Z,48.63
2023-02-14T18:27:06.032Z,44.50
2023-02-14T18:29:35.118Z,50.03
2023-02-14T18:32:03.833Z,50.75
2023-02-14T18:34:31.766Z,48.65
2023-02-14T18:37:02.124Z,49.42
2023-02-14T18:39:29.445Z,51.90
2023-02-14T18:41:59.925Z,50.38
2023-02-14T18:44:30.456Z,54.20
2023-02-14T18:47:00.508Z,50.55
2023-02-14T18:49:27.987Z,49.80
2023-02-14T18:51:57.252Z,52.38
2023-02-14T18:54:24.788Z,49.28
2023-02-14T18:56:52.135Z,47.42
2023-02-14T18:59:19.579Z,49.58
2023-02-14T19:01:47.330Z,51.38
2023-02-14T19:04:17.056Z,49.40
2023-02-14T19:06:44.879Z,48.90
2023-02-14T19:09:17.174Z,50.20
2023-02-14T19:11:45.532Z,51.15
2023-02-14T19:14:13.446Z,52.72
2023-02-14T19:16:55.802Z,46.22
2023-02-14T19:19:23.318Z,46.00
2023-02-14T19:21:51.197Z,50.03
2023-02-14T19:24:19.823Z,49.40
2023-02-14T19:26:48.337Z,48.35
2023-02-14T19:29:20.356Z,49.83
2023-02-14T19:31:54.648Z,45.90
2023-02-14T19:34:29.583Z,57.33
2023-02-14T19:37:00.580Z,50.50
2023-02-14T19:39:30.761Z,56.88
2023-02-14T19:41:59.860Z,54.47
2023-02-14T19:44:29.164Z,56.38
2023-02-14T19:46:59.879Z,59.60
2023-02-14T19:49:29.090Z,57.75
2023-02-14T19:51:57.954Z,56.13
2023-02-14T19:54:25.709Z,52.03
2023-02-14T19:56:56.029Z,54.38
2023-02-14T19:59:23.497Z,53.33
2023-02-14T20:01:54.437Z,46.03
2023-02-14T20:04:28.456Z,44.28
2023-02-14T20:06:56.912Z,42.50
2023-02-14T20:09:25.625Z,47.35
2023-02-14T20:11:57.874Z,43.15
2023-02-14T20:14:50.190Z,49.55
2023-02-14T20:17:19.409Z,44.25
2023-02-14T20:19:46.777Z,41.00
2023-02-14T20:22:14.174Z,39.13
2023-02-14T20:24:41.578Z,45.42
2023-02-14T20:27:09.009Z,40.33
2023-02-14T20:29:38.891Z,43.28
2023-02-14T20:32:06.413Z,44.15
2023-02-14T20:34:33.879Z,45.40
2023-02-14T20:37:01.327Z,42.55
2023-02-14T20:39:35.043Z,38.15
2023-02-14T20:42:02.692Z,38.63
2023-02-14T20:44:30.951Z,44.33
2023-02-14T20:46:58.627Z,44.35
2023-02-14T20:49:30.746Z,44.40
2023-02-14T20:51:59.234Z,38.03
2023-02-14T20:54:29.385Z,45.70
2023-02-14T20:56:57.903Z,41.13
2023-02-14T20:59:28.829Z,38.33
2023-02-14T21:01:59.254Z,33.53
2023-02-14T21:04:27.161Z,39.38
2023-02-14T21:06:54.652Z,39.20
2023-02-14T21:09:21.973Z,34.40
2023-02-14T21:11:50.291Z,35.13
2023-02-14T21:14:17.818Z,39.65
2023-02-14T21:16:45.129Z,36.13
2023-02-14T21:19:12.488Z,33.17
